sensor_id;sensor_type;location;lat;lon;timestamp;P1;durP1;ratioP1;P2;durP2;ratioP2
3667;SDS011;24099;47.102;15.440;2024-01-15T00:00:49;32.97;;;10.77;;
3667;SDS011;24099;47.102;15.440;2024-01-15T00:03:16;27.65;;;10.35;;
3667;SDS011;24099;47.102;15.440;2024-01-15T00:05:44;30.88;;;9.90;;
3667;SDS011;24099;47.102;15.440;2024-01-15T00:08:11;29.85;;;10.27;;
3667;SDS011;24099;47.102;15.440;2024-01-15T00:10:40;21.30;;;8.68;;
3667;SDS011;24099;47.102;15.440;2024-01-15T00:13:13;32.33;;;10.10;;
3667;SDS011;24099;47.102;15.440;2024-01-15T00:15:42;22.60;;;9.57;;
3667;SDS011;24099;47.102;15.440;2024-01-15T00:18:14;23.38;;;10.48;;
3667;SDS011;24099;47.102;15.440;2024-01-15T00:20:42;28.55;;;8.80;;
3667;SDS011;24099;47.102;15.440;2024-01-15T00:23:10;19.13;;;8.10;;
3667;SDS011;24099;47.102;15.440;2024-01-15T00:25:41;26.33;;;9.75;;
3667;SDS011;24099;47.102;15.440;2024-01-15T00:28:24;25.13;;;10.27;;
3667;SDS011;24099;47.102;15.440;2024-01-15T00:30:52;24.08;;;8.70;;
3667;SDS011;24099;47.102;15.440;2024-01-15T00:33:22;21.50;;;8.20;;
3667;SDS011;24099;47.102;15.440;2024-01-15T00:35:49;22.10;;;9.15;;
3667;SDS011;24099;47.102;15.440;2024-01-15T00:38:21;30.40;;;10.30;;
3667;SDS011;24099;47.102;15.440;2024-01-15T00:40:51;18.88;;;7.97;;
3667;SDS011;24099;47.102;15.440;2024-01-15T00:43:19;18.80;;;8.13;;
3667;SDS011;24099;47.102;15.440;2024-01-15T00:45:49;24.40;;;7.95;;
3667;SDS011;24099;47.102;15.440;2024-01-15T00:48:16;23.95;;;9.25;;
3667;SDS011;24099;47.102;15.440;2024-01-15T00:50:47;21.17;;;8.38;;
3667;SDS011;24099;47.102;15.440;2024-01-15T00:53:43;19.85;;;9.07;;
3667;SDS011;24099;47.102;15.440;2024-01-15T00:56:32;17.30;;;7.63;;
3667;SDS011;24099;47.102;15.440;2024-01-15T00:59:00;18.48;;;7.88;;
3667;SDS011;24099;47.102;15.440;2024-01-15T01:01:29;22.65;;;8.05;;
3667;SDS011;24099;47.102;15.440;2024-01-15T01:03:57;21.00;;;7.60;;
3667;SDS011;24099;47.102;15.440;2024-01-15T01:06:25;23.08;;;8.15;;
3667;SDS011;24099;47.102;15.440;2024-01-15T01:08:52;17.17;;;8.57;;
3667;SDS011;24099;47.102;15.440;2024-01-15T01:11:20;23.77;;;9.68;;
3667;SDS011;24099;47.102;15.440;2024-01-15T01:13:47;20.90;;;6.82;;
3667;SDS011;24099;47.102;15.440;2024-01-15T01:16:15;19.63;;;7.28;;
3667;SDS011;24099;47.102;15.440;2024-01-15T01:18:54;22.45;;;7.95;;
3667;SDS011;24099;47.102;15.440;2024-01-15T01:21:22;22.63;;;9.38;;
3667;SDS011;24099;47.102;15.440;2024-01-15T01:23:52;24.15;;;7.47;;
3667;SDS011;24099;47.102;15.440;2024-01-15T01:26:20;18.55;;;7.57;;
3667;SDS011;24099;47.102;15.440;2024-01-15T01:28:50;19.92;;;7.78;;
3667;SDS011;24099;47.102;15.440;2024-01-15T01:31:18;26.75;;;8.90;;
3667;SDS011;24099;47.102;15.440;2024-01-15T01:33:45;14.90;;;6.47;;
3667;SDS011;24099;47.102;15.440;2024-01-15T01:36:14;22.48;;;7.47;;
3667;SDS011;24099;47.102;15.440;2024-01-15T01:38:48;27.27;;;6.88;;
3667;SDS011;24099;47.102;15.440;2024-01-15T01:41:32;21.00;;;8.10;;
3667;SDS011;24099;47.102;15.440;2024-01-15T01:44:03;20.63;;;8.00;;
3667;SDS011;24099;47.102;15.440;2024-01-15T01:46:31;20.10;;;7.45;;
3667;SDS011;24099;47.102;15.440;2024-01-15T01:48:58;19.48;;;7.97;;
3667;SDS011;24099;47.102;15.440;2024-01-15T01:51:32;21.05;;;8.15;;
3667;SDS011;24099;47.102;15.440;2024-01-15T01:54:01;16.60;;;6.53;;
3667;SDS011;24099;47.102;15.440;2024-01-15T01:56:29;23.55;;;8.73;;
3667;SDS011;24099;47.102;15.440;2024-01-15T01:58:56;12.60;;;5.97;;
3667;SDS011;24099;47.102;15.440;2024-01-15T02:01:28;20.48;;;7.03;;
3667;SDS011;24099;47.102;15.440;2024-01-15T02:03:55;16.23;;;6.28;;
3667;SDS011;24099;47.102;15.440;2024-01-15T02:06:22;21.52;;;7.57;;
3667;SDS011;24099;47.102;15.440;2024-01-15T02:08:51;17.52;;;6.20;;
3667;SDS011;24099;47.102;15.440;2024-01-15T02:11:19;16.05;;;7.00;;
3667;SDS011;24099;47.102;15.440;2024-01-15T02:13:46;15.05;;;6.57;;
3667;SDS011;24099;47.102;15.440;2024-01-15T02:16:13;23.58;;;8.48;;
3667;SDS011;24099;47.102;15.440;2024-01-15T02:18:41;15.57;;;7.93;;
3667;SDS011;24099;47.102;15.440;2024-01-15T02:21:08;19.70;;;7.50;;
3667;SDS011;24099;47.102;15.440;2024-01-15T02:23:37;17.88;;;6.28;;
3667;SDS011;24099;47.102;15.440;2024-01-15T02:26:05;15.75;;;6.90;;
3667;SDS011;24099;47.102;15.440;2024-01-15T02:28:32;17.83;;;5.90;;
3667;SDS011;24099;47.102;15.440;2024-01-15T02:31:00;13.02;;;5.97;;
3667;SDS011;24099;47.102;15.440;2024-01-15T02:33:27;19.80;;;6.22;;
3667;SDS011;24099;47.102;15.440;2024-01-15T02:35:55;14.60;;;6.80;;
3667;SDS011;24099;47.102;15.440;2024-01-15T02:38:22;21.48;;;6.32;;
3667;SDS011;24099;47.102;15.440;2024-01-15T02:40:51;12.68;;;4.82;;
3667;SDS011;24099;47.102;15.440;2024-01-15T02:43:18;25.25;;;7.10;;
3667;SDS011;24099;47.102;15.440;2024-01-15T02:45:45;16.95;;;7.03;;
3667;SDS011;24099;47.102;15.440;2024-01-15T02:48:13;18.85;;;7.22;;
3667;SDS011;24099;47.102;15.440;2024-01-15T02:50:40;15.48;;;5.65;;
3667;SDS011;24099;47.102;15.440;2024-01-15T02:53:08;11.98;;;6.07;;
3667;SDS011;24099;47.102;15.440;2024-01-15T02:55:36;26.08;;;6.03;;
3667;SDS011;24099;47.102;15.440;2024-01-15T02:58:04;19.17;;;5.70;;
3667;SDS011;24099;47.102;15.440;2024-01-15T03:00:32;17.27;;;7.65;;
3667;SDS011;24099;47.102;15.440;2024-01-15T03:02:59;17.75;;;5.53;;
3667;SDS011;24099;47.102;15.440;2024-01-15T03:05:26;13.85;;;5.63;;
3667;SDS011;24099;47.102;15.440;2024-01-15T03:07:54;12.52;;;5.13;;
3667;SDS011;24099;47.102;15.440;2024-01-15T03:10:21;18.92;;;6.93;;
3667;SDS011;24099;47.102;15.440;2024-01-15T03:12:48;11.10;;;5.32;;
3667;SDS011;24099;47.102;15.440;2024-01-15T03:15:17;14.85;;;6.55;;
3667;SDS011;24099;47.102;15.440;2024-01-15T03:17:44;15.82;;;5.88;;
3667;SDS011;24099;47.102;15.440;2024-01-15T03:20:12;15.07;;;6.68;;
3667;SDS011;24099;47.102;15.440;2024-01-15T03:22:39;17.58;;;6.47;;
3667;SDS011;24099;47.102;15.440;2024-01-15T03:25:06;18.38;;;6.53;;
3667;SDS011;24099;47.102;15.440;2024-01-15T03:27:34;11.32;;;5.75;;
3667;SDS011;24099;47.102;15.440;2024-01-15T03:30:01;14.25;;;6.55;;
3667;SDS011;24099;47.102;15.440;2024-01-15T03:32:30;21.80;;;7.63;;
3667;SDS011;24099;47.102;15.440;2024-01-15T03:34:57;14.25;;;5.93;;
3667;SDS011;24099;47.102;15.440;2024-01-15T03:37:24;10.13;;;5.15;;
3667;SDS011;24099;47.102;15.440;2024-01-15T03:39:52;15.75;;;5.57;;
3667;SDS011;24099;47.102;15.440;2024-01-15T03:42:19;13.32;;;4.95;;
3667;SDS011;24099;47.102;15.440;2024-01-15T03:44:46;9.95;;;4.03;;
3667;SDS011;24099;47.102;15.440;2024-01-15T03:47:14;10.68;;;5.10;;
3667;SDS011;24099;47.102;15.440;2024-01-15T03:49:42;8.88;;;4.50;;
3667;SDS011;24099;47.102;15.440;2024-01-15T03:52:10;10.20;;;4.03;;
3667;SDS011;24099;47.102;15.440;2024-01-15T03:54:37;4.35;;;3.58;;
3667;SDS011;24099;47.102;15.440;2024-01-15T03:57:04;14.55;;;5.38;;
3667;SDS011;24099;47.102;15.440;2024-01-15T03:59:32;12.77;;;4.43;;
3667;SDS011;24099;47.102;15.440;2024-01-15T04:01:59;19.52;;;4.95;;
3667;SDS011;24099;47.102;15.440;2024-01-15T04:04:26;12.93;;;4.70;;
3667;SDS011;24099;47.102;15.440;2024-01-15T04:06:55;11.48;;;4.82;;
3667;SDS011;24099;47.102;15.440;2024-01-15T04:09:22;11.25;;;4.22;;
3667;SDS011;24099;47.102;15.440;2024-01-15T04:11:50;8.77;;;3.88;;
3667;SDS011;24099;47.102;15.440;2024-01-15T04:14:17;8.73;;;4.57;;
3667;SDS011;24099;47.102;15.440;2024-01-15T04:16:44;9.38;;;4.22;;
3667;SDS011;24099;47.102;15.440;2024-01-15T04:19:12;8.38;;;4.15;;
3667;SDS011;24099;47.102;15.440;2024-01-15T04:21:39;14.85;;;5.13;;
3667;SDS011;24099;47.102;15.440;2024-01-15T04:24:08;7.82;;;3.38;;
3667;SDS011;24099;47.102;15.440;2024-01-15T04:26:35;10.32;;;4.22;;
3667;SDS011;24099;47.102;15.440;2024-01-15T04:29:02;7.20;;;3.50;;
3667;SDS011;24099;47.102;15.440;2024-01-15T04:31:29;7.05;;;3.15;;
3667;SDS011;24099;47.102;15.440;2024-01-15T04:33:57;8.20;;;4.00;;
3667;SDS011;24099;47.102;15.440;2024-01-15T04:36:24;9.18;;;4.53;;
3667;SDS011;24099;47.102;15.440;2024-01-15T04:38:51;9.15;;;4.25;;
3667;SDS011;24099;47.102;15.440;2024-01-15T04:41:20;9.30;;;4.82;;
3667;SDS011;24099;47.102;15.440;2024-01-15T04:43:47;7.38;;;3.22;;
3667;SDS011;24099;47.102;15.440;2024-01-15T04:46:15;7.65;;;3.47;;
3667;SDS011;24099;47.102;15.440;2024-01-15T04:48:42;8.27;;;3.97;;
3667;SDS011;24099;47.102;15.440;2024-01-15T04:51:09;10.40;;;3.42;;
3667;SDS011;24099;47.102;15.440;2024-01-15T04:53:37;9.23;;;4.53;;
3667;SDS011;24099;47.102;15.440;2024-01-15T04:56:04;8.32;;;4.18;;
3667;SDS011;24099;47.102;15.440;2024-01-15T04:58:33;11.15;;;3.85;;
3667;SDS011;24099;47.102;15.440;2024-01-15T05:01:01;9.70;;;3.47;;
3667;SDS011;24099;47.102;15.440;2024-01-15T05:03:29;8.25;;;3.65;;
3667;SDS011;24099;47.102;15.440;2024-01-15T05:05:56;8.73;;;3.97;;
3667;SDS011;24099;47.102;15.440;2024-01-15T05:08:23;6.78;;;3.22;;
3667;SDS011;24099;47.102;15.440;2024-01-15T05:10:51;11.48;;;4.60;;
3667;SDS011;24099;47.102;15.440;2024-01-15T05:13:18;6.93;;;3.90;;
3667;SDS011;24099;47.102;15.440;2024-01-15T05:15:47;10.07;;;4.25;;
3667;SDS011;24099;47.102;15.440;2024-01-15T05:18:14;11.95;;;4.65;;
3667;SDS011;24099;47.102;15.440;2024-01-15T05:20:42;12.30;;;3.92;;
3667;SDS011;24099;47.102;15.440;2024-01-15T05:23:09;8.20;;;4.13;;
3667;SDS011;24099;47.102;15.440;2024-01-15T05:25:36;6.05;;;3.08;;
3667;SDS011;24099;47.102;15.440;2024-01-15T05:28:04;5.50;;;3.22;;
3667;SDS011;24099;47.102;15.440;2024-01-15T05:30:32;4.88;;;2.70;;
3667;SDS011;24099;47.102;15.440;2024-01-15T05:33:01;5.93;;;3.67;;
3667;SDS011;24099;47.102;15.440;2024-01-15T05:35:28;11.95;;;3.80;;
3667;SDS011;24099;47.102;15.440;2024-01-15T05:37:56;7.50;;;3.25;;
3667;SDS011;24099;47.102;15.440;2024-01-15T05:40:23;10.45;;;3.53;;
3667;SDS011;24099;47.102;15.440;2024-01-15T05:42:50;8.73;;;3.92;;
3667;SDS011;24099;47.102;15.440;2024-01-15T05:45:18;9.10;;;3.40;;
3667;SDS011;24099;47.102;15.440;2024-01-15T05:47:45;15.95;;;4.80;;
3667;SDS011;24099;47.102;15.440;2024-01-15T05:50:14;5.65;;;2.97;;
3667;SDS011;24099;47.102;15.440;2024-01-15T05:52:41;5.50;;;3.00;;
3667;SDS011;24099;47.102;15.440;2024-01-15T05:55:08;9.75;;;3.47;;
3667;SDS011;24099;47.102;15.440;2024-01-15T05:57:36;6.47;;;2.97;;
3667;SDS011;24099;47.102;15.440;2024-01-15T06:00:04;7.93;;;3.38;;
3667;SDS011;24099;47.102;15.440;2024-01-15T06:02:34;7.00;;;3.08;;
3667;SDS011;24099;47.102;15.440;2024-01-15T06:05:01;10.02;;;3.35;;
3667;SDS011;24099;47.102;15.440;2024-01-15T06:07:30;9.20;;;4.53;;
3667;SDS011;24099;47.102;15.440;2024-01-15T06:09:57;8.98;;;3.78;;
3667;SDS011;24099;47.102;15.440;2024-01-15T06:12:24;10.38;;;4.53;;
3667;SDS011;24099;47.102;15.440;2024-01-15T06:14:53;8.40;;;3.13;;
3667;SDS011;24099;47.102;15.440;2024-01-15T06:17:20;6.95;;;3.03;;
3667;SDS011;24099;47.102;15.440;2024-01-15T06:19:47;7.97;;;3.90;;
3667;SDS011;24099;47.102;15.440;2024-01-15T06:22:15;5.72;;;3.05;;
3667;SDS011;24099;47.102;15.440;2024-01-15T06:24:43;7.40;;;2.20;;
3667;SDS011;24099;47.102;15.440;2024-01-15T06:27:11;5.55;;;3.13;;
3667;SDS011;24099;47.102;15.440;2024-01-15T06:29:38;7.72;;;2.97;;
3667;SDS011;24099;47.102;15.440;2024-01-15T06:32:05;9.88;;;3.65;;
3667;SDS011;24099;47.102;15.440;2024-01-15T06:34:33;9.82;;;3.38;;
3667;SDS011;24099;47.102;15.440;2024-01-15T06:37:00;6.05;;;3.50;;
3667;SDS011;24099;47.102;15.440;2024-01-15T06:39:27;5.40;;;2.70;;
3667;SDS011;24099;47.102;15.440;2024-01-15T06:41:56;6.68;;;3.03;;
3667;SDS011;24099;47.102;15.440;2024-01-15T06:44:24;7.18;;;2.95;;
3667;SDS011;24099;47.102;15.440;2024-01-15T06:46:51;7.32;;;3.33;;
3667;SDS011;24099;47.102;15.440;2024-01-15T06:49:22;8.45;;;3.22;;
3667;SDS011;24099;47.102;15.440;2024-01-15T06:51:49;7.63;;;3.33;;
3667;SDS011;24099;47.102;15.440;2024-01-15T06:54:17;6.22;;;2.90;;
3667;SDS011;24099;47.102;15.440;2024-01-15T06:56:44;4.95;;;3.08;;
3667;SDS011;24099;47.102;15.440;2024-01-15T06:59:13;7.28;;;3.15;;
3667;SDS011;24099;47.102;15.440;2024-01-15T07:01:40;5.97;;;2.83;;
3667;SDS011;24099;47.102;15.440;2024-01-15T07:04:08;5.90;;;2.78;;
3667;SDS011;24099;47.102;15.440;2024-01-15T07:06:35;8.23;;;2.88;;
3667;SDS011;24099;47.102;15.440;2024-01-15T07:09:03;3.97;;;2.03;;
3667;SDS011;24099;47.102;15.440;2024-01-15T07:11:31;6.57;;;3.58;;
3667;SDS011;24099;47.102;15.440;2024-01-15T07:13:59;9.65;;;2.72;;
3667;SDS011;24099;47.102;15.440;2024-01-15T07:16:28;8.02;;;2.65;;
3667;SDS011;24099;47.102;15.440;2024-01-15T07:18:55;5.40;;;2.65;;
3667;SDS011;24099;47.102;15.440;2024-01-15T07:21:23;4.53;;;2.50;;
3667;SDS011;24099;47.102;15.440;2024-01-15T07:23:50;6.68;;;2.63;;
3667;SDS011;24099;47.102;15.440;2024-01-15T07:26:18;5.30;;;2.92;;
3667;SDS011;24099;47.102;15.440;2024-01-15T07:28:45;4.82;;;2.42;;
3667;SDS011;24099;47.102;15.440;2024-01-15T07:31:15;4.78;;;2.30;;
3667;SDS011;24099;47.102;15.440;2024-01-15T07:33:43;6.15;;;2.75;;
3667;SDS011;24099;47.102;15.440;2024-01-15T07:36:11;6.28;;;3.47;;
3667;SDS011;24099;47.102;15.440;2024-01-15T07:38:39;4.28;;;2.60;;
3667;SDS011;24099;47.102;15.440;2024-01-15T07:41:06;5.72;;;2.90;;
3667;SDS011;24099;47.102;15.440;2024-01-15T07:43:34;4.82;;;2.30;;
3667;SDS011;24099;47.102;15.440;2024-01-15T07:46:02;4.75;;;2.90;;
3667;SDS011;24099;47.102;15.440;2024-01-15T07:48:29;8.50;;;3.08;;
3667;SDS011;24099;47.102;15.440;2024-01-15T07:50:58;3.90;;;2.42;;
3667;SDS011;24099;47.102;15.440;2024-01-15T07:53:26;10.13;;;3.63;;
3667;SDS011;24099;47.102;15.440;2024-01-15T07:55:56;7.38;;;2.95;;
3667;SDS011;24099;47.102;15.440;2024-01-15T07:58:23;11.00;;;4.43;;
3667;SDS011;24099;47.102;15.440;2024-01-15T08:00:51;9.88;;;4.25;;
3667;SDS011;24099;47.102;15.440;2024-01-15T08:03:18;7.22;;;3.35;;
3667;SDS011;24099;47.102;15.440;2024-01-15T08:05:46;8.30;;;4.55;;
3667;SDS011;24099;47.102;15.440;2024-01-15T08:08:17;16.30;;;4.97;;
3667;SDS011;24099;47.102;15.440;2024-01-15T08:10:46;9.73;;;4.80;;
3667;SDS011;24099;47.102;15.440;2024-01-15T08:13:14;7.03;;;4.63;;
3667;SDS011;24099;47.102;15.440;2024-01-15T08:15:42;10.85;;;5.32;;
3667;SDS011;24099;47.102;15.440;2024-01-15T08:18:10;8.20;;;4.43;;
3667;SDS011;24099;47.102;15.440;2024-01-15T08:20:37;9.93;;;4.55;;
3667;SDS011;24099;47.102;15.440;2024-01-15T08:23:05;9.98;;;4.07;;
3667;SDS011;24099;47.102;15.440;2024-01-15T08:25:34;9.00;;;4.78;;
3667;SDS011;24099;47.102;15.440;2024-01-15T08:28:02;12.48;;;4.97;;
3667;SDS011;24099;47.102;15.440;2024-01-15T08:30:30;11.88;;;4.90;;
3667;SDS011;24099;47.102;15.440;2024-01-15T08:32:57;12.73;;;5.00;;
3667;SDS011;24099;47.102;15.440;2024-01-15T08:35:25;15.43;;;5.60;;
3667;SDS011;24099;47.102;15.440;2024-01-15T08:37:53;13.18;;;5.47;;
3667;SDS011;24099;47.102;15.440;2024-01-15T08:40:21;14.40;;;5.47;;
3667;SDS011;24099;47.102;15.440;2024-01-15T08:42:50;9.63;;;3.38;;
3667;SDS011;24099;47.102;15.440;2024-01-15T08:45:18;9.02;;;4.60;;
3667;SDS011;24099;47.102;15.440;2024-01-15T08:47:47;13.23;;;5.05;;
3667;SDS011;24099;47.102;15.440;2024-01-15T08:50:15;12.63;;;4.93;;
3667;SDS011;24099;47.102;15.440;2024-01-15T08:52:42;14.40;;;5.15;;
3667;SDS011;24099;47.102;15.440;2024-01-15T08:55:11;11.23;;;5.53;;
3667;SDS011;24099;47.102;15.440;2024-01-15T08:57:39;36.35;;;11.57;;
3667;SDS011;24099;47.102;15.440;2024-01-15T09:00:09;51.35;;;17.95;;
3667;SDS011;24099;47.102;15.440;2024-01-15T09:02:37;47.75;;;18.20;;
3667;SDS011;24099;47.102;15.440;2024-01-15T09:05:05;46.50;;;17.55;;
3667;SDS011;24099;47.102;15.440;2024-01-15T09:07:32;49.45;;;16.55;;
3667;SDS011;24099;47.102;15.440;2024-01-15T09:10:00;42.92;;;15.20;;
3667;SDS011;24099;47.102;15.440;2024-01-15T09:12:27;48.78;;;16.35;;
3667;SDS011;24099;47.102;15.440;2024-01-15T09:14:55;42.67;;;15.43;;
3667;SDS011;24099;47.102;15.440;2024-01-15T09:17:23;45.05;;;14.75;;
3667;SDS011;24099;47.102;15.440;2024-01-15T09:19:53;44.53;;;14.65;;
3667;SDS011;24099;47.102;15.440;2024-01-15T09:22:20;52.63;;;15.48;;
3667;SDS011;24099;47.102;15.440;2024-01-15T09:24:48;32.72;;;13.18;;
3667;SDS011;24099;47.102;15.440;2024-01-15T09:27:15;44.38;;;14.50;;
3667;SDS011;24099;47.102;15.440;2024-01-15T09:29:43;35.38;;;11.38;;
3667;SDS011;24099;47.102;15.440;2024-01-15T09:32:11;32.17;;;12.80;;
3667;SDS011;24099;47.102;15.440;2024-01-15T09:34:40;35.20;;;13.18;;
3667;SDS011;24099;47.102;15.440;2024-01-15T09:37:07;40.33;;;12.85;;
3667;SDS011;24099;47.102;15.440;2024-01-15T09:39:35;42.95;;;12.68;;
3667;SDS011;24099;47.102;15.440;2024-01-15T09:42:03;35.83;;;12.40;;
3667;SDS011;24099;47.102;15.440;2024-01-15T09:44:30;41.38;;;13.30;;
3667;SDS011;24099;47.102;15.440;2024-01-15T09:46:58;38.97;;;12.70;;
3667;SDS011;24099;47.102;15.440;2024-01-15T09:49:25;33.78;;;11.40;;
3667;SDS011;24099;47.102;15.440;2024-01-15T09:51:55;38.08;;;12.38;;
3667;SDS011;24099;47.102;15.440;2024-01-15T09:54:23;30.52;;;12.02;;
3667;SDS011;24099;47.102;15.440;2024-01-15T09:56:51;36.88;;;12.35;;
3667;SDS011;24099;47.102;15.440;2024-01-15T09:59:19;43.90;;;12.50;;
3667;SDS011;24099;47.102;15.440;2024-01-15T10:01:46;39.53;;;13.80;;
3667;SDS011;24099;47.102;15.440;2024-01-15T10:04:14;39.45;;;12.07;;
3667;SDS011;24099;47.102;15.440;2024-01-15T10:06:43;35.95;;;11.90;;
3667;SDS011;24099;47.102;15.440;2024-01-15T10:09:14;33.53;;;12.95;;
3667;SDS011;24099;47.102;15.440;2024-01-15T10:11:41;35.50;;;12.32;;
3667;SDS011;24099;47.102;15.440;2024-01-15T10:14:09;37.05;;;12.45;;
3667;SDS011;24099;47.102;15.440;2024-01-15T10:16:37;32.47;;;12.27;;
3667;SDS011;24099;47.102;15.440;2024-01-15T10:19:05;37.60;;;13.75;;
3667;SDS011;24099;47.102;15.440;2024-01-15T10:21:33;46.88;;;13.32;;
3667;SDS011;24099;47.102;15.440;2024-01-15T10:24:01;36.70;;;12.68;;
3667;SDS011;24099;47.102;15.440;2024-01-15T10:26:30;35.33;;;14.55;;
3667;SDS011;24099;47.102;15.440;2024-01-15T10:28:58;32.58;;;12.15;;
3667;SDS011;24099;47.102;15.440;2024-01-15T10:31:26;29.65;;;11.48;;
3667;SDS011;24099;47.102;15.440;2024-01-15T10:33:54;33.00;;;9.95;;
3667;SDS011;24099;47.102;15.440;2024-01-15T10:36:22;23.70;;;9.35;;
3667;SDS011;24099;47.102;15.440;2024-01-15T10:38:49;21.35;;;8.77;;
3667;SDS011;24099;47.102;15.440;2024-01-15T10:41:16;22.05;;;8.38;;
3667;SDS011;24099;47.102;15.440;2024-01-15T10:43:45;30.60;;;9.82;;
3667;SDS011;24099;47.102;15.440;2024-01-15T10:46:13;26.42;;;9.07;;
3667;SDS011;24099;47.102;15.440;2024-01-15T10:48:40;24.17;;;8.40;;
3667;SDS011;24099;47.102;15.440;2024-01-15T10:51:08;32.30;;;8.85;;
3667;SDS011;24099;47.102;15.440;2024-01-15T10:53:37;19.90;;;8.50;;
3667;SDS011;24099;47.102;15.440;2024-01-15T10:56:05;25.30;;;10.68;;
3667;SDS011;24099;47.102;15.440;2024-01-15T10:58:34;30.33;;;10.27;;
3667;SDS011;24099;47.102;15.440;2024-01-15T11:01:03;31.80;;;10.63;;
3667;SDS011;24099;47.102;15.440;2024-01-15T11:03:31;23.67;;;8.48;;
3667;SDS011;24099;47.102;15.440;2024-01-15T11:05:59;25.52;;;9.35;;
3667;SDS011;24099;47.102;15.440;2024-01-15T11:08:26;25.88;;;9.02;;
3667;SDS011;24099;47.102;15.440;2024-01-15T11:10:53;23.13;;;9.52;;
3667;SDS011;24099;47.102;15.440;2024-01-15T11:13:24;26.30;;;8.43;;
3667;SDS011;24099;47.102;15.440;2024-01-15T11:16:08;25.77;;;9.18;;
3667;SDS011;24099;47.102;15.440;2024-01-15T11:18:36;17.00;;;7.18;;
3667;SDS011;24099;47.102;15.440;2024-01-15T11:21:22;23.63;;;7.93;;
3667;SDS011;24099;47.102;15.440;2024-01-15T11:23:52;17.88;;;7.63;;
3667;SDS011;24099;47.102;15.440;2024-01-15T11:26:28;22.00;;;7.70;;
3667;SDS011;24099;47.102;15.440;2024-01-15T11:28:55;16.70;;;7.75;;
3667;SDS011;24099;47.102;15.440;2024-01-15T11:31:27;25.55;;;9.00;;
3667;SDS011;24099;47.102;15.440;2024-01-15T11:33:54;18.65;;;7.93;;
3667;SDS011;24099;47.102;15.440;2024-01-15T11:36:22;18.63;;;7.07;;
3667;SDS011;24099;47.102;15.440;2024-01-15T11:41:56;16.35;;;6.53;;
3667;SDS011;24099;47.102;15.440;2024-01-15T11:44:23;14.70;;;6.13;;
3667;SDS011;24099;47.102;15.440;2024-01-15T11:46:55;12.20;;;5.88;;
3667;SDS011;24099;47.102;15.440;2024-01-15T11:49:26;13.38;;;5.50;;
3667;SDS011;24099;47.102;15.440;2024-01-15T11:52:00;11.52;;;5.55;;
3667;SDS011;24099;47.102;15.440;2024-01-15T11:54:28;12.27;;;5.70;;
3667;SDS011;24099;47.102;15.440;2024-01-15T11:56:59;10.70;;;4.80;;
3667;SDS011;24099;47.102;15.440;2024-01-15T11:59:27;10.50;;;4.50;;
3667;SDS011;24099;47.102;15.440;2024-01-15T12:01:56;12.23;;;4.57;;
3667;SDS011;24099;47.102;15.440;2024-01-15T12:04:23;8.48;;;4.35;;
3667;SDS011;24099;47.102;15.440;2024-01-15T12:06:52;14.98;;;4.82;;
3667;SDS011;24099;47.102;15.440;2024-01-15T12:09:19;10.05;;;4.50;;
3667;SDS011;24099;47.102;15.440;2024-01-15T12:11:47;12.30;;;5.22;;
3667;SDS011;24099;47.102;15.440;2024-01-15T12:14:17;9.13;;;3.92;;
3667;SDS011;24099;47.102;15.440;2024-01-15T12:16:45;12.70;;;4.72;;
3667;SDS011;24099;47.102;15.440;2024-01-15T12:19:15;8.82;;;4.35;;
3667;SDS011;24099;47.102;15.440;2024-01-15T12:21:42;12.20;;;4.88;;
3667;SDS011;24099;47.102;15.440;2024-01-15T12:24:09;11.13;;;4.82;;
3667;SDS011;24099;47.102;15.440;2024-01-15T12:26:37;11.48;;;4.63;;
3667;SDS011;24099;47.102;15.440;2024-01-15T12:29:05;12.43;;;4.60;;
3667;SDS011;24099;47.102;15.440;2024-01-15T12:31:34;9.23;;;4.20;;
3667;SDS011;24099;47.102;15.440;2024-01-15T12:34:01;14.68;;;4.55;;
3667;SDS011;24099;47.102;15.440;2024-01-15T12:36:31;8.25;;;4.10;;
3667;SDS011;24099;47.102;15.440;2024-01-15T12:38:59;11.23;;;4.10;;
3667;SDS011;24099;47.102;15.440;2024-01-15T12:41:26;8.35;;;4.15;;
3667;SDS011;24099;47.102;15.440;2024-01-15T12:43:53;8.23;;;3.72;;
3667;SDS011;24099;47.102;15.440;2024-01-15T12:46:21;11.93;;;4.32;;
3667;SDS011;24099;47.102;15.440;2024-01-15T12:48:48;10.07;;;4.60;;
3667;SDS011;24099;47.102;15.440;2024-01-15T12:51:16;16.35;;;4.93;;
3667;SDS011;24099;47.102;15.440;2024-01-15T12:53:44;13.43;;;4.57;;
3667;SDS011;24099;47.102;15.440;2024-01-15T12:56:12;9.98;;;4.28;;
3667;SDS011;24099;47.102;15.440;2024-01-15T12:58:39;12.20;;;4.43;;
3667;SDS011;24099;47.102;15.440;2024-01-15T13:01:06;6.10;;;3.45;;
3667;SDS011;24099;47.102;15.440;2024-01-15T13:03:34;13.38;;;4.53;;
3667;SDS011;24099;47.102;15.440;2024-01-15T13:06:01;10.45;;;4.65;;
3667;SDS011;24099;47.102;15.440;2024-01-15T13:08:29;9.57;;;4.63;;
3667;SDS011;24099;47.102;15.440;2024-01-15T13:10:57;9.52;;;4.40;;
3667;SDS011;24099;47.102;15.440;2024-01-15T13:13:25;10.48;;;4.75;;
3667;SDS011;24099;47.102;15.440;2024-01-15T13:15:52;10.55;;;4.10;;
3667;SDS011;24099;47.102;15.440;2024-01-15T13:18:20;11.32;;;3.92;;
3667;SDS011;24099;47.102;15.440;2024-01-15T13:20:47;9.13;;;4.47;;
3667;SDS011;24099;47.102;15.440;2024-01-15T13:23:15;11.60;;;4.10;;
3667;SDS011;24099;47.102;15.440;2024-01-15T13:25:42;9.80;;;3.90;;
3667;SDS011;24099;47.102;15.440;2024-01-15T13:28:11;10.98;;;4.53;;
3667;SDS011;24099;47.102;15.440;2024-01-15T13:30:38;8.43;;;3.80;;
3667;SDS011;24099;47.102;15.440;2024-01-15T13:33:06;11.10;;;4.55;;
3667;SDS011;24099;47.102;15.440;2024-01-15T13:35:33;11.68;;;4.20;;
3667;SDS011;24099;47.102;15.440;2024-01-15T13:38:01;9.65;;;4.35;;
3667;SDS011;24099;47.102;15.440;2024-01-15T13:40:29;10.90;;;4.45;;
3667;SDS011;24099;47.102;15.440;2024-01-15T13:42:56;9.23;;;3.75;;
3667;SDS011;24099;47.102;15.440;2024-01-15T13:45:25;8.30;;;4.22;;
3667;SDS011;24099;47.102;15.440;2024-01-15T13:47:52;8.07;;;4.15;;
3667;SDS011;24099;47.102;15.440;2024-01-15T13:50:20;11.90;;;4.43;;
3667;SDS011;24099;47.102;15.440;2024-01-15T13:52:47;9.45;;;3.67;;
3667;SDS011;24099;47.102;15.440;2024-01-15T13:55:14;7.85;;;3.78;;
3667;SDS011;24099;47.102;15.440;2024-01-15T13:57:42;6.85;;;3.13;;
3667;SDS011;24099;47.102;15.440;2024-01-15T14:00:10;7.03;;;3.67;;
3667;SDS011;24099;47.102;15.440;2024-01-15T14:02:39;8.98;;;3.83;;
3667;SDS011;24099;47.102;15.440;2024-01-15T14:05:06;8.35;;;3.53;;
3667;SDS011;24099;47.102;15.440;2024-01-15T14:07:34;8.68;;;3.50;;
3667;SDS011;24099;47.102;15.440;2024-01-15T14:10:01;8.02;;;3.38;;
3667;SDS011;24099;47.102;15.440;2024-01-15T14:12:29;13.05;;;4.07;;
3667;SDS011;24099;47.102;15.440;2024-01-15T14:14:56;12.65;;;3.40;;
3667;SDS011;24099;47.102;15.440;2024-01-15T14:17:24;7.13;;;3.28;;
3667;SDS011;24099;47.102;15.440;2024-01-15T14:19:52;12.18;;;3.78;;
3667;SDS011;24099;47.102;15.440;2024-01-15T14:22:20;8.32;;;3.45;;
3667;SDS011;24099;47.102;15.440;2024-01-15T14:24:47;8.52;;;3.65;;
3667;SDS011;24099;47.102;15.440;2024-01-15T14:27:15;7.57;;;3.50;;
3667;SDS011;24099;47.102;15.440;2024-01-15T14:29:42;10.02;;;3.95;;
3667;SDS011;24099;47.102;15.440;2024-01-15T14:32:11;8.45;;;3.20;;
3667;SDS011;24099;47.102;15.440;2024-01-15T14:34:38;7.95;;;3.35;;
3667;SDS011;24099;47.102;15.440;2024-01-15T14:37:07;8.10;;;3.58;;
3667;SDS011;24099;47.102;15.440;2024-01-15T14:39:35;9.32;;;3.55;;
3667;SDS011;24099;47.102;15.440;2024-01-15T14:42:02;8.02;;;3.63;;
3667;SDS011;24099;47.102;15.440;2024-01-15T14:44:30;5.97;;;3.33;;
3667;SDS011;24099;47.102;15.440;2024-01-15T14:47:00;7.05;;;3.35;;